sensor_id;sensor_type;location;lat;lon;timestamp;P1;durP1;ratioP1;P2;durP2;ratioP2
69203;SDS011;56317;27.658;85.326;2023-07-13T00:01:54;32.33;;;16.60;;
69203;SDS011;56317;27.658;85.326;2023-07-13T00:04:22;27.55;;;14.77;;
69203;SDS011;56317;27.658;85.326;2023-07-13T00:06:50;26.92;;;13.05;;
69203;SDS011;56317;27.658;85.326;2023-07-13T00:09:18;28.38;;;13.98;;
69203;SDS011;56317;27.658;85.326;2023-07-13T00:11:50;25.88;;;13.80;;
69203;SDS011;56317;27.658;85.326;2023-07-13T00:14:19;24.63;;;13.43;;
69203;SDS011;56317;27.658;85.326;2023-07-13T00:16:46;24.35;;;12.82;;
69203;SDS011;56317;27.658;85.326;2023-07-13T00:19:14;25.73;;;12.73;;
69203;SDS011;56317;27.658;85.326;2023-07-13T00:21:41;20.48;;;12.32;;
69203;SDS011;56317;27.658;85.326;2023-07-13T00:24:10;20.02;;;11.23;;
69203;SDS011;56317;27.658;85.326;2023-07-13T00:26:40;30.35;;;13.73;;
69203;SDS011;56317;27.658;85.326;2023-07-13T00:29:10;27.80;;;13.70;;
69203;SDS011;56317;27.658;85.326;2023-07-13T00:31:38;24.13;;;13.05;;
69203;SDS011;56317;27.658;85.326;2023-07-13T00:34:05;25.35;;;13.48;;
69203;SDS011;56317;27.658;85.326;2023-07-13T00:36:32;25.23;;;13.07;;
69203;SDS011;56317;27.658;85.326;2023-07-13T00:38:59;20.42;;;12.23;;
69203;SDS011;56317;27.658;85.326;2023-07-13T00:41:27;25.30;;;13.20;;
69203;SDS011;56317;27.658;85.326;2023-07-13T00:43:54;25.77;;;14.52;;
69203;SDS011;56317;27.658;85.326;2023-07-13T00:46:31;27.25;;;13.82;;
69203;SDS011;56317;27.658;85.326;2023-07-13T00:49:00;25.63;;;15.13;;
69203;SDS011;56317;27.658;85.326;2023-07-13T00:51:41;26.30;;;14.65;;
69203;SDS011;56317;27.658;85.326;2023-07-13T00:54:13;24.00;;;13.05;;
69203;SDS011;56317;27.658;85.326;2023-07-13T00:56:45;21.95;;;12.70;;
69203;SDS011;56317;27.658;85.326;2023-07-13T00:59:14;21.35;;;13.05;;
69203;SDS011;56317;27.658;85.326;2023-07-13T01:01:44;21.85;;;14.13;;
69203;SDS011;56317;27.658;85.326;2023-07-13T01:04:11;23.30;;;13.38;;
69203;SDS011;56317;27.658;85.326;2023-07-13T01:06:40;25.85;;;13.77;;
69203;SDS011;56317;27.658;85.326;2023-07-13T01:09:09;26.20;;;14.10;;
69203;SDS011;56317;27.658;85.326;2023-07-13T01:11:37;18.77;;;12.25;;
69203;SDS011;56317;27.658;85.326;2023-07-13T01:14:05;24.75;;;12.93;;
69203;SDS011;56317;27.658;85.326;2023-07-13T01:16:34;23.08;;;14.52;;
69203;SDS011;56317;27.658;85.326;2023-07-13T01:19:06;20.77;;;12.18;;
69203;SDS011;56317;27.658;85.326;2023-07-13T01:21:55;18.80;;;11.20;;
69203;SDS011;56317;27.658;85.326;2023-07-13T01:24:22;17.80;;;9.88;;
69203;SDS011;56317;27.658;85.326;2023-07-13T01:26:49;17.05;;;10.93;;
69203;SDS011;56317;27.658;85.326;2023-07-13T01:29:16;20.98;;;12.15;;
69203;SDS011;56317;27.658;85.326;2023-07-13T01:31:43;18.95;;;12.20;;
69203;SDS011;56317;27.658;85.326;2023-07-13T01:34:11;26.65;;;13.80;;
69203;SDS011;56317;27.658;85.326;2023-07-13T01:36:39;25.45;;;14.80;;
69203;SDS011;56317;27.658;85.326;2023-07-13T01:39:08;22.67;;;14.45;;
69203;SDS011;56317;27.658;85.326;2023-07-13T01:41:35;26.10;;;13.55;;
69203;SDS011;56317;27.658;85.326;2023-07-13T01:44:02;23.98;;;14.48;;
69203;SDS011;56317;27.658;85.326;2023-07-13T01:46:29;21.63;;;13.43;;
69203;SDS011;56317;27.658;85.326;2023-07-13T01:48:57;24.38;;;14.20;;
69203;SDS011;56317;27.658;85.326;2023-07-13T01:51:24;25.10;;;14.45;;
69203;SDS011;56317;27.658;85.326;2023-07-13T01:53:51;22.58;;;13.82;;
69203;SDS011;56317;27.658;85.326;2023-07-13T01:56:18;23.35;;;13.98;;
69203;SDS011;56317;27.658;85.326;2023-07-13T01:58:46;22.75;;;13.18;;
69203;SDS011;56317;27.658;85.326;2023-07-13T02:01:14;23.88;;;13.32;;
69203;SDS011;56317;27.658;85.326;2023-07-13T02:03:42;21.73;;;13.98;;
69203;SDS011;56317;27.658;85.326;2023-07-13T02:06:09;21.40;;;12.82;;
69203;SDS011;56317;27.658;85.326;2023-07-13T02:08:37;23.70;;;13.25;;
69203;SDS011;56317;27.658;85.326;2023-07-13T02:11:04;20.63;;;13.75;;
69203;SDS011;56317;27.658;85.326;2023-07-13T02:13:31;26.42;;;14.07;;
69203;SDS011;56317;27.658;85.326;2023-07-13T02:15:59;21.02;;;12.80;;
69203;SDS011;56317;27.658;85.326;2023-07-13T02:18:27;16.00;;;10.93;;
69203;SDS011;56317;27.658;85.326;2023-07-13T02:20:54;20.60;;;11.05;;
69203;SDS011;56317;27.658;85.326;2023-07-13T02:23:21;17.23;;;10.35;;
69203;SDS011;56317;27.658;85.326;2023-07-13T02:25:48;17.17;;;11.20;;
69203;SDS011;56317;27.658;85.326;2023-07-13T02:28:19;14.88;;;10.48;;
69203;SDS011;56317;27.658;85.326;2023-07-13T02:30:46;19.33;;;10.68;;
69203;SDS011;56317;27.658;85.326;2023-07-13T02:33:14;19.10;;;11.63;;
69203;SDS011;56317;27.658;85.326;2023-07-13T02:35:42;18.05;;;11.88;;
69203;SDS011;56317;27.658;85.326;2023-07-13T02:38:10;21.65;;;13.70;;
69203;SDS011;56317;27.658;85.326;2023-07-13T02:40:37;20.00;;;13.82;;
69203;SDS011;56317;27.658;85.326;2023-07-13T02:43:04;20.95;;;13.98;;
69203;SDS011;56317;27.658;85.326;2023-07-13T02:45:31;25.20;;;14.88;;
69203;SDS011;56317;27.658;85.326;2023-07-13T02:47:58;21.70;;;13.20;;
69203;SDS011;56317;27.658;85.326;2023-07-13T02:50:26;23.08;;;14.57;;
69203;SDS011;56317;27.658;85.326;2023-07-13T02:52:53;18.83;;;13.18;;
69203;SDS011;56317;27.658;85.326;2023-07-13T02:55:21;20.30;;;13.30;;
69203;SDS011;56317;27.658;85.326;2023-07-13T02:57:48;19.90;;;13.70;;
69203;SDS011;56317;27.658;85.326;2023-07-13T03:00:16;21.33;;;13.80;;
69203;SDS011;56317;27.658;85.326;2023-07-13T03:02:43;22.90;;;14.88;;
69203;SDS011;56317;27.658;85.326;2023-07-13T03:05:11;26.25;;;13.85;;
69203;SDS011;56317;27.658;85.326;2023-07-13T03:07:41;23.80;;;14.95;;
69203;SDS011;56317;27.658;85.326;2023-07-13T03:10:09;22.60;;;15.30;;
69203;SDS011;56317;27.658;85.326;2023-07-13T03:12:36;27.08;;;16.10;;
69203;SDS011;56317;27.658;85.326;2023-07-13T03:15:04;24.45;;;15.68;;
69203;SDS011;56317;27.658;85.326;2023-07-13T03:17:32;24.25;;;15.55;;
69203;SDS011;56317;27.658;85.326;2023-07-13T03:19:59;20.92;;;15.07;;
69203;SDS011;56317;27.658;85.326;2023-07-13T03:22:29;25.63;;;15.63;;
69203;SDS011;56317;27.658;85.326;2023-07-13T03:24:57;23.67;;;16.17;;
69203;SDS011;56317;27.658;85.326;2023-07-13T03:27:24;30.33;;;15.75;;
69203;SDS011;56317;27.658;85.326;2023-07-13T03:29:52;23.05;;;14.93;;
69203;SDS011;56317;27.658;85.326;2023-07-13T03:32:20;24.55;;;16.27;;
69203;SDS011;56317;27.658;85.326;2023-07-13T03:34:47;23.48;;;14.93;;
69203;SDS011;56317;27.658;85.326;2023-07-13T03:37:15;27.65;;;16.63;;
69203;SDS011;56317;27.658;85.326;2023-07-13T03:39:42;26.13;;;15.13;;
69203;SDS011;56317;27.658;85.326;2023-07-13T03:42:09;29.25;;;15.38;;
69203;SDS011;56317;27.658;85.326;2023-07-13T03:44:36;29.45;;;16.05;;
69203;SDS011;56317;27.658;85.326;2023-07-13T03:47:05;28.27;;;14.48;;
69203;SDS011;56317;27.658;85.326;2023-07-13T03:49:34;19.23;;;13.48;;
69203;SDS011;56317;27.658;85.326;2023-07-13T03:52:02;18.98;;;13.73;;
69203;SDS011;56317;27.658;85.326;2023-07-13T03:54:29;18.95;;;14.35;;
69203;SDS011;56317;27.658;85.326;2023-07-13T03:56:58;20.73;;;14.48;;
69203;SDS011;56317;27.658;85.326;2023-07-13T03:59:25;23.70;;;15.05;;
69203;SDS011;56317;27.658;85.326;2023-07-13T04:01:53;25.98;;;15.77;;
69203;SDS011;56317;27.658;85.326;2023-07-13T04:04:20;23.00;;;14.75;;
69203;SDS011;56317;27.658;85.326;2023-07-13T04:06:48;21.92;;;15.07;;
69203;SDS011;56317;27.658;85.326;2023-07-13T04:09:15;27.40;;;15.27;;
69203;SDS011;56317;27.658;85.326;2023-07-13T04:11:42;24.20;;;15.80;;
69203;SDS011;56317;27.658;85.326;2023-07-13T04:14:09;25.05;;;16.15;;
69203;SDS011;56317;27.658;85.326;2023-07-13T04:16:37;25.63;;;15.95;;
69203;SDS011;56317;27.658;85.326;2023-07-13T04:19:04;27.52;;;17.65;;
69203;SDS011;56317;27.658;85.326;2023-07-13T04:21:31;26.67;;;15.98;;
69203;SDS011;56317;27.658;85.326;2023-07-13T04:24:03;30.45;;;18.02;;
69203;SDS011;56317;27.658;85.326;2023-07-13T04:26:32;23.63;;;17.48;;
69203;SDS011;56317;27.658;85.326;2023-07-13T04:29:01;23.05;;;15.52;;
69203;SDS011;56317;27.658;85.326;2023-07-13T04:31:29;23.67;;;16.60;;
69203;SDS011;56317;27.658;85.326;2023-07-13T04:33:57;28.05;;;17.25;;
69203;SDS011;56317;27.658;85.326;2023-07-13T04:36:25;32.13;;;17.65;;
69203;SDS011;56317;27.658;85.326;2023-07-13T04:38:56;30.88;;;19.00;;
69203;SDS011;56317;27.658;85.326;2023-07-13T04:41:23;30.95;;;18.45;;
69203;SDS011;56317;27.658;85.326;2023-07-13T04:43:50;32.53;;;18.73;;
69203;SDS011;56317;27.658;85.326;2023-07-13T04:46:20;33.03;;;20.02;;
69203;SDS011;56317;27.658;85.326;2023-07-13T04:48:48;30.90;;;20.27;;
69203;SDS011;56317;27.658;85.326;2023-07-13T04:51:18;29.50;;;20.40;;
69203;SDS011;56317;27.658;85.326;2023-07-13T04:53:46;32.08;;;20.38;;
69203;SDS011;56317;27.658;85.326;2023-07-13T04:56:14;29.63;;;19.90;;
69203;SDS011;56317;27.658;85.326;2023-07-13T04:58:41;31.83;;;19.00;;
69203;SDS011;56317;27.658;85.326;2023-07-13T05:01:11;27.42;;;18.15;;
69203;SDS011;56317;27.658;85.326;2023-07-13T05:03:39;29.17;;;19.98;;
69203;SDS011;56317;27.658;85.326;2023-07-13T05:06:07;27.17;;;18.38;;
69203;SDS011;56317;27.658;85.326;2023-07-13T05:08:39;28.50;;;17.55;;
69203;SDS011;56317;27.658;85.326;2023-07-13T05:11:06;26.42;;;17.02;;
69203;SDS011;56317;27.658;85.326;2023-07-13T05:13:34;25.05;;;16.70;;
69203;SDS011;56317;27.658;85.326;2023-07-13T05:16:02;24.02;;;16.55;;
69203;SDS011;56317;27.658;85.326;2023-07-13T05:18:34;24.08;;;15.77;;
69203;SDS011;56317;27.658;85.326;2023-07-13T05:21:04;27.88;;;17.38;;
69203;SDS011;56317;27.658;85.326;2023-07-13T05:23:33;27.63;;;17.02;;
69203;SDS011;56317;27.658;85.326;2023-07-13T05:26:03;29.70;;;19.10;;
69203;SDS011;56317;27.658;85.326;2023-07-13T05:28:30;26.35;;;17.02;;
69203;SDS011;56317;27.658;85.326;2023-07-13T05:30:58;26.58;;;17.20;;
69203;SDS011;56317;27.658;85.326;2023-07-13T05:33:26;22.30;;;15.15;;
69203;SDS011;56317;27.658;85.326;2023-07-13T05:36:00;24.27;;;16.40;;
69203;SDS011;56317;27.658;85.326;2023-07-13T05:38:28;29.42;;;17.27;;
69203;SDS011;56317;27.658;85.326;2023-07-13T05:40:55;27.50;;;14.90;;
69203;SDS011;56317;27.658;85.326;2023-07-13T05:43:23;26.77;;;15.45;;
69203;SDS011;56317;27.658;85.326;2023-07-13T05:45:54;31.10;;;14.77;;
69203;SDS011;56317;27.658;85.326;2023-07-13T05:48:22;29.60;;;17.30;;
69203;SDS011;56317;27.658;85.326;2023-07-13T05:50:50;26.90;;;16.88;;
69203;SDS011;56317;27.658;85.326;2023-07-13T05:53:19;26.52;;;17.60;;
69203;SDS011;56317;27.658;85.326;2023-07-13T05:55:47;27.23;;;15.02;;
69203;SDS011;56317;27.658;85.326;2023-07-13T05:58:19;22.23;;;13.48;;
69203;SDS011;56317;27.658;85.326;2023-07-13T06:00:47;22.50;;;14.30;;
69203;SDS011;56317;27.658;85.326;2023-07-13T06:03:16;19.42;;;13.77;;
69203;SDS011;56317;27.658;85.326;2023-07-13T06:05:44;26.17;;;15.13;;
69203;SDS011;56317;27.658;85.326;2023-07-13T06:08:11;24.08;;;16.75;;
69203;SDS011;56317;27.658;85.326;2023-07-13T06:10:39;35.05;;;16.25;;
69203;SDS011;56317;27.658;85.326;2023-07-13T06:13:07;24.40;;;14.77;;
69203;SDS011;56317;27.658;85.326;2023-07-13T06:15:34;23.38;;;15.70;;
69203;SDS011;56317;27.658;85.326;2023-07-13T06:18:01;21.50;;;15.52;;
69203;SDS011;56317;27.658;85.326;2023-07-13T06:20:30;28.23;;;15.57;;
69203;SDS011;56317;27.658;85.326;2023-07-13T06:23:00;27.08;;;16.60;;
69203;SDS011;56317;27.658;85.326;2023-07-13T06:25:30;28.77;;;15.35;;
69203;SDS011;56317;27.658;85.326;2023-07-13T06:27:57;23.70;;;14.00;;
69203;SDS011;56317;27.658;85.326;2023-07-13T06:30:24;23.33;;;14.10;;
69203;SDS011;56317;27.658;85.326;2023-07-13T06:32:52;21.80;;;13.10;;
69203;SDS011;56317;27.658;85.326;2023-07-13T06:35:20;24.83;;;13.93;;
69203;SDS011;56317;27.658;85.326;2023-07-13T06:37:47;20.20;;;14.00;;
69203;SDS011;56317;27.658;85.326;2023-07-13T06:40:15;21.05;;;13.55;;
69203;SDS011;56317;27.658;85.326;2023-07-13T06:42:49;24.05;;;14.68;;
69203;SDS011;56317;27.658;85.326;2023-07-13T06:45:16;20.70;;;13.55;;
69203;SDS011;56317;27.658;85.326;2023-07-13T06:47:45;19.08;;;13.13;;
69203;SDS011;56317;27.658;85.326;2023-07-13T06:50:12;21.17;;;13.63;;
69203;SDS011;56317;27.658;85.326;2023-07-13T06:52:39;22.45;;;13.30;;
69203;SDS011;56317;27.658;85.326;2023-07-13T06:55:06;19.70;;;13.68;;
69203;SDS011;56317;27.658;85.326;2023-07-13T06:57:34;20.60;;;13.40;;
69203;SDS011;56317;27.658;85.326;2023-07-13T07:00:02;18.45;;;12.80;;
69203;SDS011;56317;27.658;85.326;2023-07-13T07:02:32;22.83;;;14.68;;
69203;SDS011;56317;27.658;85.326;2023-07-13T07:04:59;22.98;;;13.45;;
69203;SDS011;56317;27.658;85.326;2023-07-13T07:07:26;20.85;;;13.50;;
69203;SDS011;56317;27.658;85.326;2023-07-13T07:09:54;21.80;;;14.48;;
69203;SDS011;56317;27.658;85.326;2023-07-13T07:12:21;20.95;;;14.40;;
69203;SDS011;56317;27.658;85.326;2023-07-13T07:14:48;20.15;;;14.63;;
69203;SDS011;56317;27.658;85.326;2023-07-13T07:17:15;20.60;;;13.25;;
69203;SDS011;56317;27.658;85.326;2023-07-13T07:19:43;21.42;;;13.48;;
69203;SDS011;56317;27.658;85.326;2023-07-13T07:22:13;25.35;;;13.32;;
69203;SDS011;56317;27.658;85.326;2023-07-13T07:24:40;17.00;;;12.15;;
69203;SDS011;56317;27.658;85.326;2023-07-13T07:27:07;23.13;;;13.15;;
69203;SDS011;56317;27.658;85.326;2023-07-13T07:29:36;20.92;;;13.18;;
69203;SDS011;56317;27.658;85.326;2023-07-13T07:32:03;18.95;;;13.85;;
69203;SDS011;56317;27.658;85.326;2023-07-13T07:34:31;19.52;;;13.63;;
69203;SDS011;56317;27.658;85.326;2023-07-13T07:37:01;28.23;;;14.57;;
69203;SDS011;56317;27.658;85.326;2023-07-13T07:39:29;18.42;;;10.38;;
69203;SDS011;56317;27.658;85.326;2023-07-13T07:41:56;14.10;;;8.52;;
69203;SDS011;56317;27.658;85.326;2023-07-13T07:44:25;11.75;;;7.75;;
69203;SDS011;56317;27.658;85.326;2023-07-13T07:46:54;13.43;;;8.07;;
69203;SDS011;56317;27.658;85.326;2023-07-13T07:49:21;10.45;;;6.75;;
69203;SDS011;56317;27.658;85.326;2023-07-13T07:51:48;11.50;;;7.38;;
69203;SDS011;56317;27.658;85.326;2023-07-13T07:54:16;14.30;;;7.88;;
69203;SDS011;56317;27.658;85.326;2023-07-13T07:56:46;13.00;;;6.80;;
69203;SDS011;56317;27.658;85.326;2023-07-13T07:59:13;10.53;;;5.70;;
69203;SDS011;56317;27.658;85.326;2023-07-13T08:01:40;10.52;;;6.18;;
69203;SDS011;56317;27.658;85.326;2023-07-13T08:04:09;11.95;;;7.03;;
69203;SDS011;56317;27.658;85.326;2023-07-13T08:06:36;11.68;;;6.97;;
69203;SDS011;56317;27.658;85.326;2023-07-13T08:09:03;11.57;;;7.65;;
69203;SDS011;56317;27.658;85.326;2023-07-13T08:11:31;15.85;;;7.70;;
69203;SDS011;56317;27.658;85.326;2023-07-13T08:13:59;16.83;;;8.32;;
69203;SDS011;56317;27.658;85.326;2023-07-13T08:16:26;16.98;;;8.57;;
69203;SDS011;56317;27.658;85.326;2023-07-13T08:18:53;13.38;;;8.25;;
69203;SDS011;56317;27.658;85.326;2023-07-13T08:21:21;15.07;;;9.13;;
69203;SDS011;56317;27.658;85.326;2023-07-13T08:23:48;13.88;;;9.35;;
69203;SDS011;56317;27.658;85.326;2023-07-13T08:26:15;17.08;;;9.68;;
69203;SDS011;56317;27.658;85.326;2023-07-13T08:28:42;14.25;;;9.75;;
69203;SDS011;56317;27.658;85.326;2023-07-13T08:31:10;18.48;;;10.30;;
69203;SDS011;56317;27.658;85.326;2023-07-13T08:33:37;12.55;;;8.32;;
69203;SDS011;56317;27.658;85.326;2023-07-13T08:36:06;13.38;;;8.63;;
69203;SDS011;56317;27.658;85.326;2023-07-13T08:38:34;15.85;;;9.32;;
69203;SDS011;56317;27.658;85.326;2023-07-13T08:41:02;14.70;;;9.23;;
69203;SDS011;56317;27.658;85.326;2023-07-13T08:43:40;16.35;;;9.68;;
69203;SDS011;56317;27.658;85.326;2023-07-13T08:48:57;16.77;;;9.57;;
69203;SDS011;56317;27.658;85.326;2023-07-13T08:54:08;21.08;;;11.90;;
69203;SDS011;56317;27.658;85.326;2023-07-13T08:57:13;23.88;;;12.60;;
69203;SDS011;56317;27.658;85.326;2023-07-13T08:59:43;22.70;;;12.15;;
69203;SDS011;56317;27.658;85.326;2023-07-13T09:04:59;20.35;;;11.57;;
69203;SDS011;56317;27.658;85.326;2023-07-13T09:07:55;16.40;;;11.05;;
69203;SDS011;56317;27.658;85.326;2023-07-13T09:10:46;18.73;;;10.90;;
69203;SDS011;56317;27.658;85.326;2023-07-13T09:16:18;17.50;;;11.55;;
69203;SDS011;56317;27.658;85.326;2023-07-13T09:18:49;18.48;;;11.55;;
69203;SDS011;56317;27.658;85.326;2023-07-13T09:21:23;19.85;;;12.15;;
69203;SDS011;56317;27.658;85.326;2023-07-13T09:27:21;24.40;;;13.35;;
69203;SDS011;56317;27.658;85.326;2023-07-13T09:30:01;23.23;;;12.05;;
69203;SDS011;56317;27.658;85.326;2023-07-13T09:32:43;30.20;;;14.73;;
69203;SDS011;56317;27.658;85.326;2023-07-13T09:35:28;30.13;;;15.15;;
69203;SDS011;56317;27.658;85.326;2023-07-13T09:38:01;28.63;;;15.88;;
69203;SDS011;56317;27.658;85.326;2023-07-13T09:40:59;21.88;;;13.52;;
69203;SDS011;56317;27.658;85.326;2023-07-13T09:44:00;20.88;;;13.38;;
69203;SDS011;56317;27.658;85.326;2023-07-13T09:46:39;22.83;;;14.32;;
69203;SDS011;56317;27.658;85.326;2023-07-13T09:49:18;33.85;;;21.48;;
69203;SDS011;56317;27.658;85.326;2023-07-13T09:51:49;31.88;;;19.45;;
69203;SDS011;56317;27.658;85.326;2023-07-13T09:54:26;33.97;;;20.05;;
69203;SDS011;56317;27.658;85.326;2023-07-13T09:56:54;30.17;;;19.98;;
69203;SDS011;56317;27.658;85.326;2023-07-13T09:59:27;28.42;;;16.80;;
69203;SDS011;56317;27.658;85.326;2023-07-13T10:07:53;25.58;;;16.48;;
69203;SDS011;56317;27.658;85.326;2023-07-13T10:10:22;25.33;;;15.50;;
69203;SDS011;56317;27.658;85.326;2023-07-13T10:12:50;25.05;;;16.67;;
69203;SDS011;56317;27.658;85.326;2023-07-13T10:15:18;26.73;;;16.25;;
69203;SDS011;56317;27.658;85.326;2023-07-13T10:17:54;29.40;;;16.98;;
69203;SDS011;56317;27.658;85.326;2023-07-13T10:20:23;26.73;;;16.42;;
69203;SDS011;56317;27.658;85.326;2023-07-13T10:22:54;24.77;;;16.25;;
69203;SDS011;56317;27.658;85.326;2023-07-13T10:25:25;25.75;;;15.63;;
69203;SDS011;56317;27.658;85.326;2023-07-13T10:28:03;26.23;;;15.27;;
69203;SDS011;56317;27.658;85.326;2023-07-13T10:30:52;31.95;;;16.83;;
69203;SDS011;56317;27.658;85.326;2023-07-13T10:33:22;23.55;;;15.10;;
69203;SDS011;56317;27.658;85.326;2023-07-13T10:35:51;26.25;;;14.40;;
69203;SDS011;56317;27.658;85.326;2023-07-13T10:38:27;26.08;;;15.20;;
69203;SDS011;56317;27.658;85.326;2023-07-13T10:41:17;29.38;;;15.32;;
69203;SDS011;56317;27.658;85.326;2023-07-13T10:43:46;25.98;;;16.27;;
69203;SDS011;56317;27.658;85.326;2023-07-13T10:46:18;28.83;;;15.93;;
69203;SDS011;56317;27.658;85.326;2023-07-13T10:48:49;35.65;;;17.90;;
69203;SDS011;56317;27.658;85.326;2023-07-13T10:54:11;32.50;;;18.70;;
69203;SDS011;56317;27.658;85.326;2023-07-13T10:56:45;29.02;;;17.25;;
69203;SDS011;56317;27.658;85.326;2023-07-13T10:59:20;25.10;;;16.58;;
69203;SDS011;56317;27.658;85.326;2023-07-13T11:02:08;28.80;;;16.48;;
69203;SDS011;56317;27.658;85.326;2023-07-13T11:07:31;30.10;;;17.60;;
69203;SDS011;56317;27.658;85.326;2023-07-13T11:10:45;33.92;;;18.00;;
69203;SDS011;56317;27.658;85.326;2023-07-13T11:21:29;35.78;;;20.83;;
69203;SDS011;56317;27.658;85.326;2023-07-13T11:29:32;34.22;;;19.33;;
69203;SDS011;56317;27.658;85.326;2023-07-13T11:34:56;30.88;;;18.00;;
69203;SDS011;56317;27.658;85.326;2023-07-13T11:37:25;30.88;;;17.80;;
69203;SDS011;56317;27.658;85.326;2023-07-13T11:39:55;33.58;;;18.52;;
69203;SDS011;56317;27.658;85.326;2023-07-13T11:42:23;29.17;;;17.83;;
69203;SDS011;56317;27.658;85.326;2023-07-13T11:44:51;32.72;;;19.50;;
69203;SDS011;56317;27.658;85.326;2023-07-13T11:47:21;38.35;;;20.92;;
69203;SDS011;56317;27.658;85.326;2023-07-13T11:49:53;40.30;;;20.55;;
69203;SDS011;56317;27.658;85.326;2023-07-13T11:52:24;34.70;;;21.40;;
69203;SDS011;56317;27.658;85.326;2023-07-13T11:55:00;41.65;;;23.00;;
69203;SDS011;56317;27.658;85.326;2023-07-13T11:57:36;38.70;;;22.25;;
69203;SDS011;56317;27.658;85.326;2023-07-13T12:00:23;39.22;;;21.80;;
69203;SDS011;56317;27.658;85.326;2023-07-13T12:02:58;39.83;;;22.35;;
69203;SDS011;56317;27.658;85.326;2023-07-13T12:05:27;40.17;;;21.88;;
69203;SDS011;56317;27.658;85.326;2023-07-13T12:07:57;33.38;;;20.75;;
69203;SDS011;56317;27.658;85.326;2023-07-13T12:10:27;44.63;;;22.95;;
69203;SDS011;56317;27.658;85.326;2023-07-13T12:13:00;38.58;;;22.92;;
69203;SDS011;56317;27.658;85.326;2023-07-13T12:15:43;59.45;;;24.77;;
69203;SDS011;56317;27.658;85.326;2023-07-13T12:18:21;40.47;;;19.10;;
69203;SDS011;56317;27.658;85.326;2023-07-13T12:20:55;31.27;;;16.80;;
69203;SDS011;56317;27.658;85.326;2023-07-13T12:25:55;35.33;;;14.75;;
69203;SDS011;56317;27.658;85.326;2023-07-13T12:28:32;28.75;;;16.88;;
69203;SDS011;56317;27.658;85.326;2023-07-13T12:31:03;31.02;;;17.20;;
69203;SDS011;56317;27.658;85.326;2023-07-13T12:33:33;36.83;;;17.15;;
69203;SDS011;56317;27.658;85.326;2023-07-13T12:36:03;36.28;;;18.50;;
69203;SDS011;56317;27.658;85.326;2023-07-13T12:38:32;35.03;;;19.88;;
69203;SDS011;56317;27.658;85.326;2023-07-13T12:41:00;30.70;;;18.88;;
69203;SDS011;56317;27.658;85.326;2023-07-13T12:43:28;34.00;;;19.50;;
69203;SDS011;56317;27.658;85.326;2023-07-13T12:46:13;37.67;;;20.45;;
69203;SDS011;56317;27.658;85.326;2023-07-13T12:48:42;28.10;;;16.23;;
69203;SDS011;56317;27.658;85.326;2023-07-13T12:51:13;30.10;;;17.80;;
69203;SDS011;56317;27.658;85.326;2023-07-13T12:53:42;33.58;;;18.23;;
69203;SDS011;56317;27.658;85.326;2023-07-13T12:56:29;36.45;;;19.55;;
69203;SDS011;56317;27.658;85.326;2023-07-13T12:59:01;31.33;;;18.25;;
69203;SDS011;56317;27.658;85.326;2023-07-13T13:01:31;33.42;;;17.83;;
69203;SDS011;56317;27.658;85.326;2023-07-13T13:04:02;33.70;;;17.45;;
69203;SDS011;56317;27.658;85.326;2023-07-13T13:06:34;36.72;;;18.85;;
69203;SDS011;56317;27.658;85.326;2023-07-13T13:09:03;34.72;;;17.52;;
69203;SDS011;56317;27.658;85.326;2023-07-13T13:11:40;28.20;;;16.75;;
69203;SDS011;56317;27.658;85.326;2023-07-13T13:14:09;36.88;;;17.58;;
69203;SDS011;56317;27.658;85.326;2023-07-13T13:16:47;26.00;;;13.98;;
69203;SDS011;56317;27.658;85.326;2023-07-13T13:19:16;28.60;;;14.18;;
69203;SDS011;56317;27.658;85.326;2023-07-13T13:21:47;29.48;;;12.65;;
69203;SDS011;56317;27.658;85.326;2023-07-13T13:24:21;26.42;;;12.10;;
69203;SDS011;56317;27.658;85.326;2023-07-13T13:26:51;24.52;;;14.82;;
69203;SDS011;56317;27.658;85.326;2023-07-13T13:29:22;24.48;;;14.90;;
69203;SDS011;56317;27.658;85.326;2023-07-13T13:31:51;26.17;;;15.00;;
69203;SDS011;56317;27.658;85.326;2023-07-13T13:34:19;24.55;;;13.63;;
69203;SDS011;56317;27.658;85.326;2023-07-13T13:36:50;26.30;;;14.55;;
69203;SDS011;56317;27.658;85.326;2023-07-13T13:39:27;31.60;;;16.98;;
69203;SDS011;56317;27.658;85.326;2023-07-13T13:41:59;29.33;;;16.70;;
69203;SDS011;56317;27.658;85.326;2023-07-13T13:44:27;36.30;;;18.23;;
69203;SDS011;56317;27.658;85.326;2023-07-13T13:46:54;28.15;;;14.73;;
69203;SDS011;56317;27.658;85.326;2023-07-13T13:49:24;27.45;;;14.73;;
69203;SDS011;56317;27.658;85.326;2023-07-13T13:51:53;27.50;;;13.27;;
69203;SDS011;56317;27.658;85.326;2023-07-13T13:54:21;28.83;;;14.38;;
69203;SDS011;56317;27.658;85.326;2023-07-13T13:56:51;19.85;;;9.68;;
69203;SDS011;56317;27.658;85.326;2023-07-13T13:59:24;25.63;;;13.07;;
69203;SDS011;56317;27.658;85.326;2023-07-13T14:01:51;17.60;;;9.18;;
69203;SDS011;56317;27.658;85.326;2023-07-13T14:04:19;18.15;;;7.90;;
69203;SDS011;56317;27.658;85.326;2023-07-13T14:06:48;21.23;;;8.38;;
69203;SDS011;56317;27.658;85.326;2023-07-13T14:09:16;13.90;;;6.70;;
69203;SDS011;56317;27.658;85.326;2023-07-13T14:11:45;15.82;;;7.50;;
69203;SDS011;56317;27.658;85.326;2023-07-13T14:14:18;19.27;;;8.68;;
69203;SDS011;56317;27.658;85.326;2023-07-13T14:16:50;13.63;;;6.55;;
69203;SDS011;56317;27.658;85.326;2023-07-13T14:19:20;15.60;;;7.20;;
69203;SDS011;56317;27.658;85.326;2023-07-13T14:21:47;12.82;;;6.43;;
69203;SDS011;56317;27.658;85.326;2023-07-13T14:24:15;16.08;;;6.90;;
69203;SDS011;56317;27.658;85.326;2023-07-13T14:26:43;14.10;;;6.85;;
69203;SDS011;56317;27.658;85.326;2023-07-13T14:29:14;16.48;;;6.80;;
69203;SDS011;56317;27.658;85.326;2023-07-13T14:31:43;12.73;;;5.80;;
69203;SDS011;56317;27.658;85.326;2023-07-13T14:34:12;14.27;;;6.70;;
69203;SDS011;56317;27.658;85.326;2023-07-13T14:36:44;15.65;;;6.45;;
69203;SDS011;56317;27.658;85.326;2023-07-13T14:39:15;13.65;;;7.00;;
69203;SDS011;56317;27.658;85.326;2023-07-13T14:41:44;14.10;;;5.93;;
69203;SDS011;56317;27.658;85.326;2023-07-13T14:44:12;10.73;;;5.95;;
69203;SDS011;56317;27.658;85.326;2023-07-13T14:46:40;10.10;;;5.97;;
69203;SDS011;56317;27.658;85.326;2023-07-13T14:51:42;14.95;;;6.70;;
69203;SDS011;56317;27.658;85.326;2023-07-13T14:54:09;14.18;;;6.80;;
69203;SDS011;56317;27.658;85.326;2023-07-13T14:56:37;12.10;;;5.95;;
69203;SDS011;56317;27.658;85.326;2023-07-13T14:59:04;9.32;;;5.72;;
69203;SDS011;56317;27.658;85.326;2023-07-13T15:01:36;10.48;;;5.47;;
69203;SDS011;56317;27.658;85.326;2023-07-13T15:04:05;10.52;;;5.82;;
69203;SDS011;56317;27.658;85.326;2023-07-13T15:06:35;16.02;;;8.50;;
69203;SDS011;56317;27.658;85.326;2023-07-13T15:09:20;13.63;;;7.55;;
69203;SDS011;56317;27.658;85.326;2023-07-13T15:11:49;16.45;;;7.65;;
69203;SDS011;56317;27.658;85.326;2023-07-13T15:14:17;11.80;;;6.53;;
69203;SDS011;56317;27.658;85.326;2023-07-13T15:16:44;13.43;;;7.10;;